Terminal Aerodrome Forecast
Issued by NWS

Current Version | Previous Version | Text Only | Print | Product List | Glossary On
Versions: 1 2 3 4 5 6 7 8 9 10 11 12 13 14 15
686
FTUS46 KSGX 241120
TAFONT
TAF
KONT 241120Z 2412/2518 VRB05KT P6SM SCT025 BKN035
      TEMPO 2412/2416 -SHRA BKN020
     FM242000 26012KT P6SM SCT030
     FM250500 25005KT P6SM BKN025 BKN035
      TEMPO 2511/2515 -SHRA BKN018=

USA.gov is the U.S. government's official web portal to all federal, state and local government web resources and services.